Kezdőlap
METAR-TAF:

METAR-TAF

Repülőterek :

Karacsi, Pakisztán

földrajzi szélesség: 24-54N, földrajzi hosszúság: 067-08E, magasság: 21 m

Jelenlegi meteorológiai megfigyelések

A jelentés 27 perccel ezelõtt készült, 10:30 UTC
Nyugati szél 12 kt
Hőmérséklet 34°C
Páratartalom 41%
Légköri nyomás 1008 hPa
Látótávolság: 7000 m

METAR: OPKC 231030Z 27012KT 7000 NSC 34/19 Q1008 NOSIG

Idő: 15:57 (10:57 UTC)

Előrejelzés

A jelentés 4 órával és 27 perccel ezelõtt készült, 06:30 UTC
Az előrejelzés 23-én 09 óra UTC és 23-én 18 óra UTC között érvényes
Nyugat-délnyugati szél 10 kt széllökések: 20 kt
Látótávolság: 6000 m
Kevés felhő 2000 lábon

TAF: OPKC 230630Z 2309/2318 24010G20KT 6000 FEW020

Meteorológiai megfigyelések és előrejelzések több, mint 4000 repülőtéren (METAR és TAF jelentéseket).

A térképen piros és sárga pontok jelzik az elérhető meteorológiai állomásokat.

Mozgassa az egeret a pont fölött, hogy megjelenjen az állomás neve.

Azután kattintson az időjárási megfigyelések és előrejelzések megtekintéséhez.

A térkép megváltoztatása: kattintson a fekete keresztel jelölt zöld gombra ráközelítéshez, a vonallal jelölt zöld gombra távolításhoz, vagy a zöld nyilakra a szomszédos térképek eléréséhez.


METAR-TAF: